createdAt,value
2017-10-08T00:00:51.836Z,999.81
2017-10-08T00:02:00.663Z,999.74
2017-10-08T00:03:09.491Z,999.76
2017-10-08T00:04:18.321Z,999.78
2017-10-08T00:05:27.152Z,999.75
2017-10-08T00:06:35.988Z,999.77
2017-10-08T00:07:44.814Z,999.75
2017-10-08T00:08:53.647Z,999.82
2017-10-08T00:10:02.473Z,999.73
2017-10-08T00:11:11.307Z,999.8
2017-10-08T00:12:20.139Z,999.77
2017-10-08T00:13:28.970Z,999.78
2017-10-08T00:14:37.799Z,999.79
2017-10-08T00:15:46.623Z,999.83
2017-10-08T00:16:55.452Z,999.74
2017-10-08T00:18:04.285Z,999.78
2017-10-08T00:19:13.120Z,999.75
2017-10-08T00:20:21.948Z,999.78
2017-10-08T00:21:30.779Z,999.77
2017-10-08T00:22:39.608Z,999.84
2017-10-08T00:23:48.435Z,999.79
2017-10-08T00:24:57.269Z,999.76
2017-10-08T00:26:06.099Z,999.75
2017-10-08T00:27:14.928Z,999.75
2017-10-08T00:28:23.757Z,999.77
2017-10-08T00:29:32.587Z,999.78
2017-10-08T00:30:41.417Z,999.76
2017-10-08T00:31:50.251Z,999.78
2017-10-08T00:32:59.080Z,999.79
2017-10-08T00:34:07.913Z,999.76
2017-10-08T00:35:16.750Z,999.76
2017-10-08T00:36:25.576Z,999.73
2017-10-08T00:37:34.403Z,999.73
2017-10-08T00:38:43.235Z,999.71
2017-10-08T00:39:52.067Z,999.8
2017-10-08T00:41:00.893Z,999.81
2017-10-08T00:42:09.725Z,999.86
2017-10-08T00:43:18.553Z,999.75
2017-10-08T00:44:27.385Z,999.75
2017-10-08T00:45:36.218Z,999.75
2017-10-08T00:46:45.048Z,999.7
2017-10-08T00:47:53.879Z,999.72
2017-10-08T00:49:02.707Z,999.73
2017-10-08T00:50:11.537Z,999.79
2017-10-08T00:51:20.367Z,999.74
2017-10-08T00:52:29.195Z,999.78
2017-10-08T00:53:38.025Z,999.7
2017-10-08T00:54:46.854Z,999.77
2017-10-08T00:55:56.010Z,999.87
2017-10-08T00:57:04.834Z,999.82
2017-10-08T00:58:13.668Z,999.79
2017-10-08T00:59:22.492Z,999.81
2017-10-08T01:00:31.325Z,999.82
2017-10-08T01:01:40.153Z,999.82
2017-10-08T01:02:48.981Z,999.77
2017-10-08T01:03:57.818Z,999.74
2017-10-08T01:05:06.646Z,999.75
2017-10-08T01:06:15.477Z,999.8
2017-10-08T01:07:24.310Z,999.71
2017-10-08T01:08:33.139Z,999.79
2017-10-08T01:09:41.963Z,999.74
2017-10-08T01:10:50.793Z,999.81
2017-10-08T01:11:59.620Z,999.78
2017-10-08T01:13:08.456Z,999.81
2017-10-08T01:14:17.285Z,999.78
2017-10-08T01:15:26.110Z,999.77
2017-10-08T01:16:34.941Z,999.77
2017-10-08T01:17:43.774Z,999.77
2017-10-08T01:18:52.601Z,999.86
2017-10-08T01:20:01.432Z,999.86
2017-10-08T01:21:10.268Z,999.85
2017-10-08T01:22:19.096Z,999.79
2017-10-08T01:23:28.243Z,999.86
2017-10-08T01:24:37.079Z,999.81
2017-10-08T01:25:45.909Z,999.91
2017-10-08T01:26:54.738Z,999.75
2017-10-08T01:28:03.568Z,999.81
2017-10-08T01:29:12.396Z,999.78
2017-10-08T01:30:21.556Z,999.78
2017-10-08T01:31:30.387Z,999.84
2017-10-08T01:32:39.549Z,999.85
2017-10-08T01:33:48.380Z,999.9
2017-10-08T01:34:57.211Z,999.91
2017-10-08T01:36:06.035Z,999.91
2017-10-08T01:37:14.861Z,999.9
2017-10-08T01:38:24.010Z,999.91
2017-10-08T01:39:32.847Z,999.92
2017-10-08T01:40:41.674Z,999.87
2017-10-08T01:41:50.505Z,999.86
2017-10-08T01:42:59.336Z,999.9
2017-10-08T01:44:08.164Z,999.86
2017-10-08T01:45:17.002Z,999.94
2017-10-08T01:46:25.835Z,999.86
2017-10-08T01:47:34.667Z,999.93
2017-10-08T01:48:43.498Z,999.91
2017-10-08T01:49:52.327Z,999.92
2017-10-08T01:51:01.164Z,999.94
2017-10-08T01:52:09.991Z,999.97
2017-10-08T01:53:18.823Z,999.96
2017-10-08T01:54:27.976Z,999.97
2017-10-08T01:55:36.810Z,999.99
2017-10-08T01:56:45.636Z,1000.03
2017-10-08T01:57:54.473Z,1000.07
2017-10-08T01:59:03.310Z,1000.1
2017-10-08T02:00:12.137Z,1000
2017-10-08T02:01:20.965Z,1000
2017-10-08T02:02:29.794Z,999.99
2017-10-08T02:03:38.629Z,999.98
2017-10-08T02:04:47.778Z,1000.01
2017-10-08T02:05:56.615Z,1000.03
2017-10-08T02:07:05.446Z,1000.03
2017-10-08T02:08:14.279Z,1000.04
2017-10-08T02:09:23.110Z,1000.11
2017-10-08T02:10:31.943Z,1000.02
2017-10-08T02:11:40.769Z,1000.05
2017-10-08T02:12:49.597Z,1000.02
2017-10-08T02:13:58.433Z,1000.02
2017-10-08T02:15:07.264Z,1000.07
2017-10-08T02:16:16.099Z,1000.09
2017-10-08T02:17:24.930Z,1000.13
2017-10-08T02:18:33.758Z,1000.18
2017-10-08T02:19:42.597Z,1000.15
2017-10-08T02:20:51.430Z,1000.21
2017-10-08T02:22:00.264Z,1000.15
2017-10-08T02:23:09.092Z,1000.17
2017-10-08T02:24:17.925Z,1000.2
2017-10-08T02:25:26.755Z,1000.19
2017-10-08T02:26:35.586Z,1000.17
2017-10-08T02:27:44.421Z,1000.25
2017-10-08T02:28:53.249Z,1000.26
2017-10-08T02:30:02.082Z,1000.25
2017-10-08T02:31:10.905Z,1000.23
2017-10-08T02:32:19.737Z,1000.21
2017-10-08T02:33:28.565Z,1000.23
2017-10-08T02:34:37.722Z,1000.23
2017-10-08T02:35:46.553Z,1000.26
2017-10-08T02:36:55.713Z,1000.34
2017-10-08T02:38:04.543Z,1000.3
2017-10-08T02:39:13.371Z,1000.31
2017-10-08T02:40:22.206Z,1000.3
2017-10-08T02:41:31.037Z,1000.32
2017-10-08T02:42:39.867Z,1000.35
2017-10-08T02:43:49.020Z,1000.32
2017-10-08T02:44:57.850Z,1000.36
2017-10-08T02:46:06.682Z,1000.36
2017-10-08T02:47:15.510Z,1000.3
2017-10-08T02:48:24.343Z,1000.33
2017-10-08T02:49:33.172Z,1000.37
2017-10-08T02:50:42.008Z,1000.36
2017-10-08T02:51:50.836Z,1000.39
2017-10-08T02:52:59.667Z,1000.45
2017-10-08T02:54:08.498Z,1000.38
2017-10-08T02:55:17.330Z,1000.4
2017-10-08T02:56:26.158Z,1000.43
2017-10-08T02:57:34.991Z,1000.46
2017-10-08T02:58:43.825Z,1000.44
2017-10-08T02:59:52.653Z,1000.46
2017-10-08T03:01:01.485Z,1000.41
2017-10-08T03:02:10.310Z,1000.46
2017-10-08T03:03:19.472Z,1000.46
2017-10-08T03:04:28.309Z,1000.46
2017-10-08T03:05:37.140Z,1000.46
2017-10-08T03:06:45.972Z,1000.48
2017-10-08T03:07:54.802Z,1000.45
2017-10-08T03:09:03.636Z,1000.46
2017-10-08T03:10:12.466Z,1000.47
2017-10-08T03:11:21.301Z,1000.52
2017-10-08T03:12:30.130Z,1000.47
2017-10-08T03:13:39.278Z,1000.49
2017-10-08T03:14:48.115Z,1000.49
2017-10-08T03:15:56.947Z,1000.45
2017-10-08T03:17:06.432Z,1000.52
2017-10-08T03:18:15.261Z,1000.59
2017-10-08T03:19:24.090Z,1000.55
2017-10-08T03:20:32.916Z,1000.51
2017-10-08T03:21:41.747Z,1000.57
2017-10-08T03:22:50.581Z,1000.6
2017-10-08T03:23:59.406Z,1000.59
2017-10-08T03:25:08.238Z,1000.6
2017-10-08T03:26:17.069Z,1000.61
2017-10-08T03:27:25.904Z,1000.65
2017-10-08T03:28:34.734Z,1000.65
2017-10-08T03:29:43.569Z,1000.64
2017-10-08T03:30:52.398Z,1000.71
2017-10-08T03:32:01.231Z,1000.73
2017-10-08T03:33:10.057Z,1000.73
2017-10-08T03:34:18.883Z,1000.72
2017-10-08T03:35:27.718Z,1000.73
2017-10-08T03:36:36.552Z,1000.72
2017-10-08T03:37:45.381Z,1000.75
2017-10-08T03:38:54.213Z,1000.74
2017-10-08T03:40:03.043Z,1000.74
2017-10-08T03:41:11.866Z,1000.73
2017-10-08T03:42:20.700Z,1000.74
2017-10-08T03:43:29.536Z,1000.76
2017-10-08T03:44:38.360Z,1000.76
2017-10-08T03:45:47.194Z,1000.8
2017-10-08T03:46:56.022Z,1000.81
2017-10-08T03:48:04.856Z,1000.82
2017-10-08T03:49:13.690Z,1000.82
2017-10-08T03:50:22.518Z,1000.82
2017-10-08T03:51:31.355Z,1000.84
2017-10-08T03:52:40.184Z,1000.79
2017-10-08T03:53:49.015Z,1000.85
2017-10-08T03:54:57.850Z,1000.84
2017-10-08T03:56:07.009Z,1000.88
2017-10-08T03:57:15.842Z,1000.86
2017-10-08T03:58:24.677Z,1000.86
2017-10-08T03:59:33.503Z,1000.89
2017-10-08T04:00:42.335Z,1000.87
2017-10-08T04:01:51.162Z,1000.87
2017-10-08T04:02:59.999Z,1000.9
2017-10-08T04:04:08.826Z,1000.92
2017-10-08T04:05:17.664Z,1000.88
2017-10-08T04:06:26.489Z,1000.87
2017-10-08T04:07:35.319Z,1000.92
2017-10-08T04:08:44.153Z,1000.9
2017-10-08T04:09:52.985Z,1000.94
2017-10-08T04:11:01.816Z,1000.96
2017-10-08T04:12:10.647Z,1000.93
2017-10-08T04:13:19.482Z,1000.93
2017-10-08T04:14:28.313Z,1000.92
2017-10-08T04:15:37.145Z,1001.05
2017-10-08T04:16:45.976Z,1000.98
2017-10-08T04:17:54.807Z,1001.04
2017-10-08T04:19:03.642Z,1001.05
2017-10-08T04:20:12.474Z,1001.05
2017-10-08T04:21:21.308Z,1001.05
2017-10-08T04:22:30.140Z,1001.05
2017-10-08T04:23:38.968Z,1001.07
2017-10-08T04:24:47.801Z,1001.09
2017-10-08T04:25:56.635Z,1001.18
2017-10-08T04:27:05.786Z,1001.27
2017-10-08T04:28:14.617Z,1001.27
2017-10-08T04:29:23.449Z,1001.3
2017-10-08T04:30:32.277Z,1001.27
2017-10-08T04:31:41.110Z,1001.31
2017-10-08T04:32:49.940Z,1001.3
2017-10-08T04:33:58.773Z,1001.27
2017-10-08T04:35:07.602Z,1001.31
2017-10-08T04:36:16.434Z,1001.35
2017-10-08T04:37:25.262Z,1001.35
2017-10-08T04:38:34.096Z,1001.4
2017-10-08T04:39:42.927Z,1001.37
2017-10-08T04:40:51.751Z,1001.39
2017-10-08T04:42:00.586Z,1001.35
2017-10-08T04:43:09.422Z,1001.43
2017-10-08T04:44:18.255Z,1001.44
2017-10-08T04:45:27.086Z,1001.42
2017-10-08T04:46:35.915Z,1001.44
2017-10-08T04:47:44.744Z,1001.45
2017-10-08T04:48:53.582Z,1001.4
2017-10-08T04:50:02.417Z,1001.4
2017-10-08T04:51:11.246Z,1001.48
2017-10-08T04:52:20.078Z,1001.5
2017-10-08T04:53:28.906Z,1001.53
2017-10-08T04:54:37.732Z,1001.57
2017-10-08T04:55:46.569Z,1001.54
2017-10-08T04:56:55.399Z,1001.53
2017-10-08T04:58:04.225Z,1001.6
2017-10-08T04:59:13.057Z,1001.63
2017-10-08T05:00:21.885Z,1001.61
2017-10-08T05:01:30.713Z,1001.59
2017-10-08T05:02:39.550Z,1001.65
2017-10-08T05:03:48.383Z,1001.7
2017-10-08T05:04:57.216Z,1001.66
2017-10-08T05:06:06.046Z,1001.65
2017-10-08T05:07:14.878Z,1001.66
2017-10-08T05:08:23.708Z,1001.68
2017-10-08T05:09:32.596Z,1001.66
2017-10-08T05:10:41.425Z,1001.65
2017-10-08T05:11:50.264Z,1001.64
2017-10-08T05:12:59.089Z,1001.68
2017-10-08T05:14:07.919Z,1001.71
2017-10-08T05:15:16.748Z,1001.76
2017-10-08T05:16:25.579Z,1001.75
2017-10-08T05:17:34.411Z,1001.83
2017-10-08T05:18:43.239Z,1001.81
2017-10-08T05:19:52.073Z,1001.8
2017-10-08T05:21:00.906Z,1001.82
2017-10-08T05:22:09.738Z,1001.87
2017-10-08T05:23:18.566Z,1001.87
2017-10-08T05:24:27.396Z,1001.9
2017-10-08T05:25:36.230Z,1001.9
2017-10-08T05:26:45.059Z,1001.98
2017-10-08T05:27:53.893Z,1001.97
2017-10-08T05:29:02.727Z,1001.98
2017-10-08T05:30:11.555Z,1001.93
2017-10-08T05:31:20.387Z,1001.95
2017-10-08T05:32:29.218Z,1002.03
2017-10-08T05:33:38.052Z,1001.98
2017-10-08T05:34:46.887Z,1002.01
2017-10-08T05:35:56.038Z,1002.08
2017-10-08T05:37:04.869Z,1002.07
2017-10-08T05:38:13.697Z,1002.1
2017-10-08T05:39:22.530Z,1002.11
2017-10-08T05:40:31.358Z,1002.15
2017-10-08T05:41:40.190Z,1002.12
2017-10-08T05:42:49.026Z,1002.13
2017-10-08T05:43:58.178Z,1002.11
2017-10-08T05:45:07.012Z,1002.13
2017-10-08T05:46:15.844Z,1002.16
2017-10-08T05:47:24.675Z,1002.18
2017-10-08T05:48:33.508Z,1002.21
2017-10-08T05:49:42.660Z,1002.2
2017-10-08T05:50:51.488Z,1002.2
2017-10-08T05:52:00.323Z,1002.22
2017-10-08T05:53:09.155Z,1002.21
2017-10-08T05:54:17.983Z,1002.23
2017-10-08T05:55:26.817Z,1002.31
2017-10-08T05:56:35.647Z,1002.35
2017-10-08T05:57:44.479Z,1002.38
2017-10-08T05:58:53.314Z,1002.4
2017-10-08T06:00:02.142Z,1002.42
2017-10-08T06:01:10.968Z,1002.42
2017-10-08T06:02:19.803Z,1002.41
2017-10-08T06:03:28.637Z,1002.47
2017-10-08T06:04:37.468Z,1002.48
2017-10-08T06:05:46.299Z,1002.5
2017-10-08T06:06:55.130Z,1002.48
2017-10-08T06:08:03.957Z,1002.52
2017-10-08T06:09:12.793Z,1002.53
2017-10-08T06:10:21.623Z,1002.55
2017-10-08T06:11:30.455Z,1002.6
2017-10-08T06:12:39.288Z,1002.59
2017-10-08T06:13:48.113Z,1002.61
2017-10-08T06:14:56.941Z,1002.64
2017-10-08T06:16:05.775Z,1002.67
2017-10-08T06:17:14.609Z,1002.7
2017-10-08T06:18:23.437Z,1002.75
2017-10-08T06:19:32.263Z,1002.75
2017-10-08T06:20:41.096Z,1002.75
2017-10-08T06:21:49.931Z,1002.78
2017-10-08T06:22:58.765Z,1002.78
2017-10-08T06:24:07.594Z,1002.81
2017-10-08T06:25:16.423Z,1002.85
2017-10-08T06:26:25.258Z,1002.92
2017-10-08T06:27:34.089Z,1002.93
2017-10-08T06:28:42.925Z,1002.99
2017-10-08T06:29:51.760Z,1003
2017-10-08T06:31:00.585Z,1003.03
2017-10-08T06:32:09.418Z,1003.04
2017-10-08T06:33:18.247Z,1003.06
2017-10-08T06:34:27.078Z,1003.06
2017-10-08T06:35:35.911Z,1003.12
2017-10-08T06:36:44.743Z,1003.13
2017-10-08T06:37:53.576Z,1003.14
2017-10-08T06:39:02.406Z,1003.18
2017-10-08T06:40:11.241Z,1003.17
2017-10-08T06:41:20.072Z,1003.19
2017-10-08T06:42:28.904Z,1003.17
2017-10-08T06:43:37.735Z,1003.2
2017-10-08T06:44:46.561Z,1003.2
2017-10-08T06:45:55.395Z,1003.19
2017-10-08T06:47:04.230Z,1003.17
2017-10-08T06:48:13.062Z,1003.27
2017-10-08T06:49:21.895Z,1003.27
2017-10-08T06:50:30.721Z,1003.31
2017-10-08T06:51:39.550Z,1003.34
2017-10-08T06:52:48.381Z,1003.43
2017-10-08T06:53:57.216Z,1003.46
2017-10-08T06:55:06.044Z,1003.47
2017-10-08T06:56:14.872Z,1003.48
2017-10-08T06:57:23.705Z,1003.52
2017-10-08T06:58:32.539Z,1003.52
2017-10-08T06:59:41.375Z,1003.51
2017-10-08T07:00:50.204Z,1003.55
2017-10-08T07:01:59.033Z,1003.58
2017-10-08T07:03:07.863Z,1003.57
2017-10-08T07:04:16.699Z,1003.55
2017-10-08T07:05:25.528Z,1003.63
2017-10-08T07:06:34.361Z,1003.65
2017-10-08T07:07:43.192Z,1003.62
2017-10-08T07:08:52.020Z,1003.62
2017-10-08T07:10:00.852Z,1003.6
2017-10-08T07:11:09.682Z,1003.59
2017-10-08T07:12:18.839Z,1003.62
2017-10-08T07:13:27.669Z,1003.65
2017-10-08T07:14:36.497Z,1003.66
2017-10-08T07:15:45.327Z,1003.69
2017-10-08T07:16:54.157Z,1003.7
2017-10-08T07:18:02.997Z,1003.69
2017-10-08T07:19:11.826Z,1003.68
2017-10-08T07:20:20.657Z,1003.75
2017-10-08T07:21:29.492Z,1003.79
2017-10-08T07:22:38.319Z,1003.8
2017-10-08T07:23:47.152Z,1003.8
2017-10-08T07:24:55.986Z,1003.82
2017-10-08T07:26:04.812Z,1003.86
2017-10-08T07:27:13.643Z,1003.85
2017-10-08T07:28:22.470Z,1003.9
2017-10-08T07:29:31.304Z,1003.94
2017-10-08T07:30:40.133Z,1003.95
2017-10-08T07:31:48.969Z,1003.99
2017-10-08T07:32:57.803Z,1004.02
2017-10-08T07:34:06.636Z,1004.02
2017-10-08T07:35:15.465Z,1004.01
2017-10-08T07:36:24.298Z,1004.04
2017-10-08T07:37:33.129Z,1004.1
2017-10-08T07:38:41.958Z,1004.07
2017-10-08T07:39:50.787Z,1004.07
2017-10-08T07:40:59.937Z,1004.12
2017-10-08T07:42:08.771Z,1004.14
2017-10-08T07:43:17.603Z,1004.16
2017-10-08T07:44:26.436Z,1004.22
2017-10-08T07:45:35.266Z,1004.24
2017-10-08T07:46:44.100Z,1004.29
2017-10-08T07:47:52.929Z,1004.32
2017-10-08T07:49:01.763Z,1004.33
2017-10-08T07:50:10.596Z,1004.32
2017-10-08T07:51:19.425Z,1004.36
2017-10-08T07:52:28.255Z,1004.32
2017-10-08T07:53:37.093Z,1004.3
2017-10-08T07:54:45.925Z,1004.29
2017-10-08T07:55:54.757Z,1004.3
2017-10-08T07:57:03.588Z,1004.3
2017-10-08T07:58:12.416Z,1004.37
2017-10-08T07:59:21.255Z,1004.37
2017-10-08T08:00:30.087Z,1004.4
2017-10-08T08:01:38.920Z,1004.39
2017-10-08T08:02:47.755Z,1004.48
2017-10-08T08:03:56.587Z,1004.46
2017-10-08T08:05:05.416Z,1004.46
2017-10-08T08:06:14.253Z,1004.49
2017-10-08T08:07:23.090Z,1004.52
2017-10-08T08:08:31.914Z,1004.49
2017-10-08T08:09:40.739Z,1004.5
2017-10-08T08:10:49.572Z,1004.51
2017-10-08T08:11:58.413Z,1004.52
2017-10-08T08:13:07.254Z,1004.53
2017-10-08T08:14:16.087Z,1004.53
2017-10-08T08:15:24.915Z,1004.54
2017-10-08T08:16:34.073Z,1004.51
2017-10-08T08:17:42.909Z,1004.52
2017-10-08T08:18:51.739Z,1004.55
2017-10-08T08:20:00.576Z,1004.58
2017-10-08T08:21:09.406Z,1004.64
2017-10-08T08:22:18.243Z,1004.66
2017-10-08T08:23:27.718Z,1004.67
2017-10-08T08:24:36.552Z,1004.65
2017-10-08T08:25:45.390Z,1004.66
2017-10-08T08:26:54.220Z,1004.7
2017-10-08T08:28:03.055Z,1004.69
2017-10-08T08:29:11.890Z,1004.71
2017-10-08T08:30:20.718Z,1004.69
2017-10-08T08:31:29.550Z,1004.7
2017-10-08T08:32:38.381Z,1004.7
2017-10-08T08:33:47.217Z,1004.67
2017-10-08T08:34:56.052Z,1004.72
2017-10-08T08:36:04.880Z,1004.72
2017-10-08T08:37:13.712Z,1004.71
2017-10-08T08:38:22.549Z,1004.77
2017-10-08T08:39:31.374Z,1004.76
2017-10-08T08:40:40.211Z,1004.81
2017-10-08T08:41:49.041Z,1004.83
2017-10-08T08:42:57.873Z,1004.82
2017-10-08T08:44:06.703Z,1004.83
2017-10-08T08:45:15.542Z,1004.86
2017-10-08T08:46:24.370Z,1004.88
2017-10-08T08:47:33.207Z,1004.85
2017-10-08T08:48:42.037Z,1004.88
2017-10-08T08:49:50.872Z,1004.84
2017-10-08T08:50:59.705Z,1004.9
2017-10-08T08:52:08.541Z,1004.91
2017-10-08T08:53:17.371Z,1004.95
2017-10-08T08:54:26.207Z,1004.91
2017-10-08T08:55:35.043Z,1004.96
2017-10-08T08:56:43.871Z,1005
2017-10-08T08:57:52.702Z,1005.02
2017-10-08T08:59:01.540Z,1005.08
2017-10-08T09:00:10.369Z,1005.08
2017-10-08T09:01:19.202Z,1005.08
2017-10-08T09:02:28.033Z,1005.1
2017-10-08T09:03:36.867Z,1005.14
2017-10-08T09:04:45.702Z,1005.13
2017-10-08T09:05:54.533Z,1005.16
2017-10-08T09:07:03.364Z,1005.14
2017-10-08T09:08:12.196Z,1005.19
2017-10-08T09:09:21.027Z,1005.17
2017-10-08T09:10:29.859Z,1005.21
2017-10-08T09:11:38.689Z,1005.26
2017-10-08T09:12:47.518Z,1005.24
2017-10-08T09:13:56.353Z,1005.29
2017-10-08T09:15:05.187Z,1005.28
2017-10-08T09:16:14.022Z,1005.34
2017-10-08T09:17:22.853Z,1005.35
2017-10-08T09:18:31.680Z,1005.36
2017-10-08T09:19:40.514Z,1005.33
2017-10-08T09:20:49.351Z,1005.33
2017-10-08T09:21:58.184Z,1005.31
2017-10-08T09:23:07.337Z,1005.38
2017-10-08T09:24:16.169Z,1005.39
2017-10-08T09:25:24.995Z,1005.37
2017-10-08T09:26:33.832Z,1005.38
2017-10-08T09:27:42.667Z,1005.38
2017-10-08T09:28:51.496Z,1005.41
2017-10-08T09:30:00.329Z,1005.44
2017-10-08T09:31:09.163Z,1005.44
2017-10-08T09:32:17.992Z,1005.47
2017-10-08T09:33:27.148Z,1005.52
2017-10-08T09:34:35.985Z,1005.53
2017-10-08T09:35:44.825Z,1005.54
2017-10-08T09:36:53.980Z,1005.57
2017-10-08T09:38:02.814Z,1005.62
2017-10-08T09:39:11.650Z,1005.58
2017-10-08T09:40:20.485Z,1005.59
2017-10-08T09:41:29.318Z,1005.65
2017-10-08T09:42:38.478Z,1005.62
2017-10-08T09:43:47.307Z,1005.68
2017-10-08T09:44:56.140Z,1005.68
2017-10-08T09:46:04.969Z,1005.66
2017-10-08T09:47:13.809Z,1005.7
2017-10-08T09:48:22.646Z,1005.72
2017-10-08T09:49:31.474Z,1005.72
2017-10-08T09:50:40.305Z,1005.66
2017-10-08T09:51:49.138Z,1005.74
2017-10-08T09:52:57.970Z,1005.72
2017-10-08T09:54:06.807Z,1005.72
2017-10-08T09:55:15.638Z,1005.75
2017-10-08T09:56:24.473Z,1005.75
2017-10-08T09:57:33.305Z,1005.81
2017-10-08T09:58:42.142Z,1005.81
2017-10-08T09:59:50.980Z,1005.82
2017-10-08T10:00:59.811Z,1005.83
2017-10-08T10:02:08.642Z,1005.79
2017-10-08T10:03:17.468Z,1005.81
2017-10-08T10:04:26.300Z,1005.88
2017-10-08T10:05:35.137Z,1005.9
2017-10-08T10:06:43.969Z,1005.93
2017-10-08T10:07:52.800Z,1005.95
2017-10-08T10:09:01.960Z,1005.98
2017-10-08T10:10:10.796Z,1005.97
2017-10-08T10:11:19.627Z,1005.99
2017-10-08T10:12:28.462Z,1006.01
2017-10-08T10:13:37.292Z,1005.98
2017-10-08T10:14:46.125Z,1006.05
2017-10-08T10:15:54.958Z,1006.06
2017-10-08T10:17:03.792Z,1006.1
2017-10-08T10:18:12.627Z,1006.07
2017-10-08T10:19:21.460Z,1006.1
2017-10-08T10:20:30.290Z,1006.09
2017-10-08T10:21:39.125Z,1006.1
2017-10-08T10:22:48.290Z,1006.16
2017-10-08T10:23:57.125Z,1006.13
2017-10-08T10:25:05.962Z,1006.18
2017-10-08T10:26:15.119Z,1006.14
2017-10-08T10:27:23.949Z,1006.18
2017-10-08T10:28:32.783Z,1006.17
2017-10-08T10:29:41.615Z,1006.1
2017-10-08T10:30:50.448Z,1006.2
2017-10-08T10:31:59.281Z,1006.16
2017-10-08T10:33:08.115Z,1006.18
2017-10-08T10:34:16.946Z,1006.25
2017-10-08T10:35:25.786Z,1006.27
2017-10-08T10:36:34.620Z,1006.25
2017-10-08T10:37:43.455Z,1006.29
2017-10-08T10:38:52.285Z,1006.29
2017-10-08T10:40:01.121Z,1006.28
2017-10-08T10:41:10.270Z,1006.3
2017-10-08T10:42:19.109Z,1006.28
2017-10-08T10:43:28.267Z,1006.35
2017-10-08T10:44:37.094Z,1006.36
2017-10-08T10:45:45.929Z,1006.38
2017-10-08T10:46:54.760Z,1006.38
2017-10-08T10:48:03.591Z,1006.4
2017-10-08T10:49:12.431Z,1006.38
2017-10-08T10:50:21.263Z,1006.43
2017-10-08T10:51:30.098Z,1006.45
2017-10-08T10:52:38.930Z,1006.4
2017-10-08T10:53:47.767Z,1006.42
2017-10-08T10:54:56.599Z,1006.5
2017-10-08T10:56:05.432Z,1006.5
2017-10-08T10:57:14.266Z,1006.53
2017-10-08T10:58:23.100Z,1006.5
2017-10-08T10:59:31.938Z,1006.56
2017-10-08T11:00:40.770Z,1006.56
2017-10-08T11:01:49.600Z,1006.56
2017-10-08T11:02:58.433Z,1006.56
2017-10-08T11:04:07.267Z,1006.57
2017-10-08T11:05:16.104Z,1006.54
2017-10-08T11:06:24.941Z,1006.54
2017-10-08T11:07:33.773Z,1006.56
2017-10-08T11:08:42.926Z,1006.54
2017-10-08T11:09:51.762Z,1006.49
2017-10-08T11:11:00.598Z,1006.53
2017-10-08T11:12:09.433Z,1006.58
2017-10-08T11:13:18.264Z,1006.53
2017-10-08T11:14:27.099Z,1006.52
2017-10-08T11:15:35.931Z,1006.55
2017-10-08T11:16:44.767Z,1006.51
2017-10-08T11:17:53.597Z,1006.56
2017-10-08T11:19:02.429Z,1006.56
2017-10-08T11:20:11.266Z,1006.55
2017-10-08T11:21:20.101Z,1006.57
2017-10-08T11:22:28.933Z,1006.54
2017-10-08T11:23:37.763Z,1006.59
2017-10-08T11:24:46.600Z,1006.6
2017-10-08T11:25:55.433Z,1006.57
2017-10-08T11:27:04.267Z,1006.59
2017-10-08T11:28:13.112Z,1006.62
2017-10-08T11:29:21.947Z,1006.6
2017-10-08T11:30:30.778Z,1006.65
2017-10-08T11:31:39.612Z,1006.7
2017-10-08T11:32:48.448Z,1006.64
2017-10-08T11:33:57.277Z,1006.58
2017-10-08T11:35:06.112Z,1006.58
2017-10-08T11:36:14.942Z,1006.61
2017-10-08T11:37:23.781Z,1006.61
2017-10-08T11:38:32.616Z,1006.58
2017-10-08T11:39:41.443Z,1006.6
2017-10-08T11:40:50.274Z,1006.64
2017-10-08T11:41:59.108Z,1006.58
2017-10-08T11:43:07.940Z,1006.6
2017-10-08T11:44:16.773Z,1006.62
2017-10-08T11:45:25.613Z,1006.66
2017-10-08T11:46:34.446Z,1006.72
2017-10-08T11:47:43.603Z,1006.7
2017-10-08T11:48:52.442Z,1006.7
2017-10-08T11:50:01.278Z,1006.72
2017-10-08T11:51:10.109Z,1006.69
2017-10-08T11:52:18.943Z,1006.72
2017-10-08T11:53:27.770Z,1006.69
2017-10-08T11:54:36.604Z,1006.64
2017-10-08T11:55:45.440Z,1006.67
2017-10-08T11:56:54.274Z,1006.7
2017-10-08T11:58:03.105Z,1006.65
2017-10-08T11:59:11.943Z,1006.68
2017-10-08T12:00:20.773Z,1006.78
2017-10-08T12:01:29.605Z,1006.78
2017-10-08T12:02:38.441Z,1006.74
2017-10-08T12:03:47.273Z,1006.8
2017-10-08T12:04:56.104Z,1006.76
2017-10-08T12:06:04.939Z,1006.79
2017-10-08T12:07:13.775Z,1006.75
2017-10-08T12:08:22.610Z,1006.77
2017-10-08T12:09:31.443Z,1006.82
2017-10-08T12:10:40.278Z,1006.86
2017-10-08T12:11:49.110Z,1006.88
2017-10-08T12:12:57.945Z,1006.83
2017-10-08T12:14:06.776Z,1006.9
2017-10-08T12:15:15.628Z,1006.87
2017-10-08T12:16:24.444Z,1006.85
2017-10-08T12:17:33.274Z,1006.92
2017-10-08T12:18:42.110Z,1006.91
2017-10-08T12:19:50.942Z,1006.86
2017-10-08T12:20:59.779Z,1006.93
2017-10-08T12:22:08.609Z,1006.89
2017-10-08T12:23:17.444Z,1006.94
2017-10-08T12:24:26.273Z,1006.94
2017-10-08T12:25:35.113Z,1006.96
2017-10-08T12:26:43.945Z,1006.92
2017-10-08T12:27:52.780Z,1006.94
2017-10-08T12:29:01.612Z,1006.96
2017-10-08T12:30:10.444Z,1006.99
2017-10-08T12:31:19.274Z,1007.02
2017-10-08T12:32:28.110Z,1006.95
2017-10-08T12:33:36.946Z,1006.96
2017-10-08T12:34:45.776Z,1007.01
2017-10-08T12:35:54.616Z,1007
2017-10-08T12:37:03.451Z,1007.04
2017-10-08T12:38:12.285Z,1007.01
2017-10-08T12:39:21.118Z,1006.99
2017-10-08T12:40:29.951Z,1006.99
2017-10-08T12:41:38.785Z,1007.01
2017-10-08T12:42:47.622Z,1007.05
2017-10-08T12:43:56.460Z,1007.1
2017-10-08T12:45:05.290Z,1007.09
2017-10-08T12:46:14.128Z,1007.12
2017-10-08T12:47:22.964Z,1007.06
2017-10-08T12:48:31.800Z,1007.08
2017-10-08T12:49:40.632Z,1007.12
2017-10-08T12:50:49.463Z,1007.13
2017-10-08T12:51:58.618Z,1007.12
2017-10-08T12:53:07.452Z,1007.09
2017-10-08T12:54:16.286Z,1007.12
2017-10-08T12:55:25.123Z,1007.08
2017-10-08T12:56:33.958Z,1007.15
2017-10-08T12:57:42.793Z,1007.13
2017-10-08T12:58:51.624Z,1007.14
2017-10-08T13:00:00.461Z,1007.14
2017-10-08T13:01:09.296Z,1007.13
2017-10-08T13:02:18.127Z,1007.13
2017-10-08T13:03:26.959Z,1007.15
2017-10-08T13:04:35.788Z,1007.24
2017-10-08T13:05:44.620Z,1007.25
2017-10-08T13:06:53.459Z,1007.19
2017-10-08T13:08:02.296Z,1007.21
2017-10-08T13:09:11.130Z,1007.23
2017-10-08T13:10:19.958Z,1007.25
2017-10-08T13:11:28.801Z,1007.28
2017-10-08T13:12:37.637Z,1007.26
2017-10-08T13:13:46.475Z,1007.28
2017-10-08T13:14:55.312Z,1007.32
2017-10-08T13:16:04.147Z,1007.3
2017-10-08T13:17:12.978Z,1007.32
2017-10-08T13:18:21.821Z,1007.28
2017-10-08T13:19:30.653Z,1007.27
2017-10-08T13:20:39.487Z,1007.34
2017-10-08T13:21:48.321Z,1007.3
2017-10-08T13:22:57.480Z,1007.29
2017-10-08T13:24:06.311Z,1007.28
2017-10-08T13:25:15.145Z,1007.29
2017-10-08T13:26:23.975Z,1007.3
2017-10-08T13:27:32.814Z,1007.33
2017-10-08T13:28:41.651Z,1007.41
2017-10-08T13:29:50.481Z,1007.31
2017-10-08T13:30:59.315Z,1007.34
2017-10-08T13:32:08.479Z,1007.34
2017-10-08T13:33:17.309Z,1007.36
2017-10-08T13:34:26.149Z,1007.35
2017-10-08T13:35:34.983Z,1007.39
2017-10-08T13:36:43.816Z,1007.41
2017-10-08T13:37:52.648Z,1007.38
2017-10-08T13:39:01.489Z,1007.41
2017-10-08T13:40:10.321Z,1007.41
2017-10-08T13:41:19.155Z,1007.39
2017-10-08T13:42:27.988Z,1007.46
2017-10-08T13:43:36.825Z,1007.41
2017-10-08T13:44:45.659Z,1007.45
2017-10-08T13:45:54.496Z,1007.46
2017-10-08T13:47:03.333Z,1007.47
2017-10-08T13:48:12.170Z,1007.45
2017-10-08T13:49:21.007Z,1007.49
2017-10-08T13:50:29.839Z,1007.42
2017-10-08T13:51:38.679Z,1007.44
2017-10-08T13:52:47.516Z,1007.43
2017-10-08T13:53:56.349Z,1007.45
2017-10-08T13:55:05.184Z,1007.47
2017-10-08T13:56:14.020Z,1007.43
2017-10-08T13:57:22.865Z,1007.46
2017-10-08T13:58:31.699Z,1007.43
2017-10-08T13:59:40.533Z,1007.44